sensor_id;sensor_type;location;lat;lon;timestamp;pressure;altitude;pressure_sealevel;temperature;humidity
19783;BME280;10051;40.294;-3.754;2022-08-19T00:00:17;94537.25;;;22.94;37.58
19783;BME280;10051;40.294;-3.754;2022-08-19T00:02:44;94533.72;;;22.90;37.78
19783;BME280;10051;40.294;-3.754;2022-08-19T00:05:13;94522.09;;;22.66;37.74
19783;BME280;10051;40.294;-3.754;2022-08-19T00:07:39;94531.41;;;22.72;37.99
19783;BME280;10051;40.294;-3.754;2022-08-19T00:10:11;94479.19;;;22.34;38.56
19783;BME280;10051;40.294;-3.754;2022-08-19T00:12:38;94492.69;;;22.53;37.93
19783;BME280;10051;40.294;-3.754;2022-08-19T00:15:06;94495.34;;;22.37;38.29
19783;BME280;10051;40.294;-3.754;2022-08-19T00:17:32;94451.88;;;22.12;38.29
19783;BME280;10051;40.294;-3.754;2022-08-19T00:19:57;94343.97;;;21.31;38.15
19783;BME280;10051;40.294;-3.754;2022-08-19T00:22:23;94509.38;;;22.47;38.21
19783;BME280;10051;40.294;-3.754;2022-08-19T00:24:48;94507.63;;;22.38;38.26
19783;BME280;10051;40.294;-3.754;2022-08-19T00:27:14;94450.75;;;21.97;38.30
19783;BME280;10051;40.294;-3.754;2022-08-19T00:29:40;94474.94;;;22.17;38.36
19783;BME280;10051;40.294;-3.754;2022-08-19T00:32:05;94473.06;;;22.01;38.40
19783;BME280;10051;40.294;-3.754;2022-08-19T00:34:31;94504.50;;;22.20;38.76
19783;BME280;10051;40.294;-3.754;2022-08-19T00:36:57;94525.59;;;22.38;38.78
19783;BME280;10051;40.294;-3.754;2022-08-19T00:39:23;94433.63;;;21.69;39.05
19783;BME280;10051;40.294;-3.754;2022-08-19T00:41:49;94504.13;;;22.06;39.00
19783;BME280;10051;40.294;-3.754;2022-08-19T00:44:21;94549.59;;;22.34;39.28
19783;BME280;10051;40.294;-3.754;2022-08-19T00:46:48;94527.06;;;22.19;39.32
19783;BME280;10051;40.294;-3.754;2022-08-19T00:49:20;94451.50;;;21.65;39.40
19783;BME280;10051;40.294;-3.754;2022-08-19T00:51:50;94523.06;;;22.29;38.88
19783;BME280;10051;40.294;-3.754;2022-08-19T00:54:17;94527.22;;;22.26;39.30
19783;BME280;10051;40.294;-3.754;2022-08-19T00:56:43;94523.94;;;22.17;39.19
19783;BME280;10051;40.294;-3.754;2022-08-19T00:59:10;94533.78;;;22.13;39.28
19783;BME280;10051;40.294;-3.754;2022-08-19T01:01:37;94533.16;;;22.04;39.44
19783;BME280;10051;40.294;-3.754;2022-08-19T01:04:03;94476.38;;;21.82;39.36
19783;BME280;10051;40.294;-3.754;2022-08-19T01:06:30;94537.06;;;22.22;39.46
19783;BME280;10051;40.294;-3.754;2022-08-19T01:08:58;94443.03;;;21.63;39.45
19783;BME280;10051;40.294;-3.754;2022-08-19T01:11:24;94537.56;;;22.12;39.78
19783;BME280;10051;40.294;-3.754;2022-08-19T01:13:52;94539.50;;;22.27;39.20
19783;BME280;10051;40.294;-3.754;2022-08-19T01:16:20;94505.84;;;21.82;39.66
19783;BME280;10051;40.294;-3.754;2022-08-19T01:18:47;94467.19;;;21.67;39.74
19783;BME280;10051;40.294;-3.754;2022-08-19T01:23:46;94524.88;;;22.09;39.97
19783;BME280;10051;40.294;-3.754;2022-08-19T01:26:18;94534.03;;;22.08;40.01
19783;BME280;10051;40.294;-3.754;2022-08-19T01:28:46;94505.41;;;21.80;39.82
19783;BME280;10051;40.294;-3.754;2022-08-19T01:31:17;94450.63;;;21.20;40.52
19783;BME280;10051;40.294;-3.754;2022-08-19T01:33:44;94484.53;;;21.45;40.63
19783;BME280;10051;40.294;-3.754;2022-08-19T01:36:16;94537.34;;;21.89;40.08
19783;BME280;10051;40.294;-3.754;2022-08-19T01:38:47;94467.78;;;21.48;40.44
19783;BME280;10051;40.294;-3.754;2022-08-19T01:41:15;94466.00;;;21.23;40.59
19783;BME280;10051;40.294;-3.754;2022-08-19T01:43:42;94487.78;;;21.38;40.77
19783;BME280;10051;40.294;-3.754;2022-08-19T01:46:07;94418.00;;;21.15;40.21
19783;BME280;10051;40.294;-3.754;2022-08-19T01:48:38;94529.56;;;21.83;40.32
19783;BME280;10051;40.294;-3.754;2022-08-19T01:51:04;94395.16;;;20.64;40.82
19783;BME280;10051;40.294;-3.754;2022-08-19T01:53:31;94531.66;;;21.62;40.73
19783;BME280;10051;40.294;-3.754;2022-08-19T01:55:57;94531.69;;;21.49;41.06
19783;BME280;10051;40.294;-3.754;2022-08-19T01:58:26;94360.84;;;20.25;41.29
19783;BME280;10051;40.294;-3.754;2022-08-19T02:00:53;94403.09;;;20.35;41.67
19783;BME280;10051;40.294;-3.754;2022-08-19T02:03:18;94521.00;;;21.37;41.38
19783;BME280;10051;40.294;-3.754;2022-08-19T02:05:44;94504.44;;;21.19;41.32
19783;BME280;10051;40.294;-3.754;2022-08-19T02:08:11;94493.91;;;20.98;41.53
19783;BME280;10051;40.294;-3.754;2022-08-19T02:10:43;94501.31;;;21.17;41.58
19783;BME280;10051;40.294;-3.754;2022-08-19T02:13:10;94496.06;;;21.20;41.50
19783;BME280;10051;40.294;-3.754;2022-08-19T02:15:37;94468.81;;;21.02;41.78
19783;BME280;10051;40.294;-3.754;2022-08-19T02:18:03;94470.28;;;21.00;41.92
19783;BME280;10051;40.294;-3.754;2022-08-19T02:20:28;94465.63;;;20.72;42.21
19783;BME280;10051;40.294;-3.754;2022-08-19T02:22:54;94497.78;;;21.00;42.11
19783;BME280;10051;40.294;-3.754;2022-08-19T02:25:19;94455.72;;;20.72;41.94
19783;BME280;10051;40.294;-3.754;2022-08-19T02:27:44;94434.56;;;20.55;42.19
19783;BME280;10051;40.294;-3.754;2022-08-19T02:30:13;94441.38;;;20.52;41.95
19783;BME280;10051;40.294;-3.754;2022-08-19T02:32:41;94470.88;;;20.93;42.13
19783;BME280;10051;40.294;-3.754;2022-08-19T02:37:32;94480.47;;;20.82;41.86
19783;BME280;10051;40.294;-3.754;2022-08-19T02:40:16;94512.25;;;20.99;42.13
19783;BME280;10051;40.294;-3.754;2022-08-19T02:42:43;94538.81;;;20.92;42.47
19783;BME280;10051;40.294;-3.754;2022-08-19T02:45:11;94461.53;;;20.37;42.66
19783;BME280;10051;40.294;-3.754;2022-08-19T02:47:37;94398.09;;;20.09;42.37
19783;BME280;10051;40.294;-3.754;2022-08-19T02:50:03;94535.22;;;21.00;42.42
19783;BME280;10051;40.294;-3.754;2022-08-19T02:52:29;94432.13;;;20.25;42.75
19783;BME280;10051;40.294;-3.754;2022-08-19T02:54:56;94438.16;;;20.21;42.63
19783;BME280;10051;40.294;-3.754;2022-08-19T02:57:23;94535.00;;;20.93;42.73
19783;BME280;10051;40.294;-3.754;2022-08-19T02:59:48;94480.91;;;20.46;42.99
19783;BME280;10051;40.294;-3.754;2022-08-19T03:02:15;94457.84;;;20.42;42.76
19783;BME280;10051;40.294;-3.754;2022-08-19T03:04:41;94436.03;;;20.40;42.47
19783;BME280;10051;40.294;-3.754;2022-08-19T03:07:08;94453.97;;;20.52;42.46
19783;BME280;10051;40.294;-3.754;2022-08-19T03:09:36;94543.56;;;20.99;42.94
19783;BME280;10051;40.294;-3.754;2022-08-19T03:12:03;94481.09;;;20.41;43.25
19783;BME280;10051;40.294;-3.754;2022-08-19T03:14:33;94532.75;;;20.70;43.22
19783;BME280;10051;40.294;-3.754;2022-08-19T03:16:59;94477.31;;;20.42;43.09
19783;BME280;10051;40.294;-3.754;2022-08-19T03:19:24;94549.69;;;20.74;43.19
19783;BME280;10051;40.294;-3.754;2022-08-19T03:21:50;94537.56;;;20.77;43.38
19783;BME280;10051;40.294;-3.754;2022-08-19T03:24:17;94536.75;;;20.52;43.70
19783;BME280;10051;40.294;-3.754;2022-08-19T03:26:46;94465.97;;;20.08;43.48
19783;BME280;10051;40.294;-3.754;2022-08-19T03:29:12;94459.25;;;19.89;43.88
19783;BME280;10051;40.294;-3.754;2022-08-19T03:31:39;94548.09;;;20.36;44.15
19783;BME280;10051;40.294;-3.754;2022-08-19T03:34:06;94353.91;;;18.95;44.44
19783;BME280;10051;40.294;-3.754;2022-08-19T03:36:32;94437.06;;;19.43;44.65
19783;BME280;10051;40.294;-3.754;2022-08-19T03:39:00;94536.25;;;20.25;44.58
19783;BME280;10051;40.294;-3.754;2022-08-19T03:41:46;94473.97;;;19.74;44.91
19783;BME280;10051;40.294;-3.754;2022-08-19T03:44:15;94504.25;;;19.91;45.00
19783;BME280;10051;40.294;-3.754;2022-08-19T03:46:42;94551.00;;;20.43;44.31
19783;BME280;10051;40.294;-3.754;2022-08-19T03:49:08;94430.88;;;19.97;43.76
19783;BME280;10051;40.294;-3.754;2022-08-19T03:51:37;94469.94;;;20.14;43.90
19783;BME280;10051;40.294;-3.754;2022-08-19T03:54:05;94422.88;;;19.97;43.74
19783;BME280;10051;40.294;-3.754;2022-08-19T03:56:32;94439.38;;;20.12;43.41
19783;BME280;10051;40.294;-3.754;2022-08-19T03:58:58;94538.78;;;20.79;43.46
19783;BME280;10051;40.294;-3.754;2022-08-19T04:01:27;94531.19;;;20.69;43.63
19783;BME280;10051;40.294;-3.754;2022-08-19T04:03:55;94535.19;;;20.63;43.73
19783;BME280;10051;40.294;-3.754;2022-08-19T04:06:24;94536.53;;;20.57;43.90
19783;BME280;10051;40.294;-3.754;2022-08-19T04:08:51;94540.75;;;20.58;44.03
19783;BME280;10051;40.294;-3.754;2022-08-19T04:11:24;94422.34;;;19.58;44.27
19783;BME280;10051;40.294;-3.754;2022-08-19T04:13:51;94548.06;;;20.24;44.76
19783;BME280;10051;40.294;-3.754;2022-08-19T04:16:19;94546.03;;;20.20;44.75
19783;BME280;10051;40.294;-3.754;2022-08-19T04:18:46;94474.16;;;19.69;44.67
19783;BME280;10051;40.294;-3.754;2022-08-19T04:21:21;94479.94;;;19.71;44.67
19783;BME280;10051;40.294;-3.754;2022-08-19T04:23:47;94556.47;;;20.13;44.77
19783;BME280;10051;40.294;-3.754;2022-08-19T04:26:19;94492.97;;;19.52;45.05
19783;BME280;10051;40.294;-3.754;2022-08-19T04:28:45;94563.56;;;20.09;44.91
19783;BME280;10051;40.294;-3.754;2022-08-19T04:31:24;94570.06;;;20.20;44.61
19783;BME280;10051;40.294;-3.754;2022-08-19T04:33:56;94426.31;;;19.18;44.71
19783;BME280;10051;40.294;-3.754;2022-08-19T04:36:25;94527.16;;;19.92;44.63
19783;BME280;10051;40.294;-3.754;2022-08-19T04:38:54;94497.19;;;19.74;44.66
19783;BME280;10051;40.294;-3.754;2022-08-19T04:41:21;94438.75;;;19.47;43.97
19783;BME280;10051;40.294;-3.754;2022-08-19T04:44:05;94547.84;;;20.29;43.91
19783;BME280;10051;40.294;-3.754;2022-08-19T04:46:31;94509.44;;;20.09;44.02
19783;BME280;10051;40.294;-3.754;2022-08-19T04:49:00;94478.09;;;19.84;43.93
19783;BME280;10051;40.294;-3.754;2022-08-19T04:51:26;94499.31;;;20.02;43.96
19783;BME280;10051;40.294;-3.754;2022-08-19T04:53:52;94510.75;;;20.02;44.14
19783;BME280;10051;40.294;-3.754;2022-08-19T04:56:19;94504.25;;;19.91;44.50
19783;BME280;10051;40.294;-3.754;2022-08-19T04:58:46;94463.91;;;19.59;44.72
19783;BME280;10051;40.294;-3.754;2022-08-19T05:01:19;94567.50;;;20.12;44.78
19783;BME280;10051;40.294;-3.754;2022-08-19T05:03:45;94528.88;;;19.75;45.20
19783;BME280;10051;40.294;-3.754;2022-08-19T05:06:12;94473.50;;;19.17;45.71
19783;BME280;10051;40.294;-3.754;2022-08-19T05:08:39;94562.06;;;19.87;45.67
19783;BME280;10051;40.294;-3.754;2022-08-19T05:11:37;94536.16;;;19.66;45.61
19783;BME280;10051;40.294;-3.754;2022-08-19T05:14:04;94575.19;;;19.92;45.59
19783;BME280;10051;40.294;-3.754;2022-08-19T05:16:30;94578.56;;;19.80;45.70
19783;BME280;10051;40.294;-3.754;2022-08-19T05:18:56;94486.84;;;19.17;45.94
19783;BME280;10051;40.294;-3.754;2022-08-19T05:21:42;94582.97;;;19.64;46.39
19783;BME280;10051;40.294;-3.754;2022-08-19T05:24:27;94530.13;;;19.36;46.08
19783;BME280;10051;40.294;-3.754;2022-08-19T05:26:54;94581.44;;;19.75;46.22
19783;BME280;10051;40.294;-3.754;2022-08-19T05:29:22;94520.00;;;19.50;45.65
19783;BME280;10051;40.294;-3.754;2022-08-19T05:31:49;94560.44;;;19.73;45.39
19783;BME280;10051;40.294;-3.754;2022-08-19T05:34:16;94479.88;;;19.04;45.80
19783;BME280;10051;40.294;-3.754;2022-08-19T05:36:43;94445.16;;;18.92;45.64
19783;BME280;10051;40.294;-3.754;2022-08-19T05:39:16;94579.22;;;19.77;45.77
19783;BME280;10051;40.294;-3.754;2022-08-19T05:41:44;94558.03;;;19.38;46.50
19783;BME280;10051;40.294;-3.754;2022-08-19T05:44:09;94587.75;;;19.70;45.93
19783;BME280;10051;40.294;-3.754;2022-08-19T05:46:37;94598.09;;;19.72;45.85
19783;BME280;10051;40.294;-3.754;2022-08-19T05:49:07;94542.03;;;19.17;46.31
19783;BME280;10051;40.294;-3.754;2022-08-19T05:51:35;94567.19;;;19.50;46.33
19783;BME280;10051;40.294;-3.754;2022-08-19T05:54:03;94588.53;;;19.71;46.09
19783;BME280;10051;40.294;-3.754;2022-08-19T05:56:30;94569.22;;;19.53;45.95
19783;BME280;10051;40.294;-3.754;2022-08-19T05:58:56;94597.53;;;19.66;46.16
19783;BME280;10051;40.294;-3.754;2022-08-19T06:01:24;94603.31;;;19.47;46.83
19783;BME280;10051;40.294;-3.754;2022-08-19T06:03:50;94601.75;;;19.46;46.95
19783;BME280;10051;40.294;-3.754;2022-08-19T06:06:16;94547.81;;;19.19;46.78
19783;BME280;10051;40.294;-3.754;2022-08-19T06:08:42;94583.16;;;19.37;46.68
19783;BME280;10051;40.294;-3.754;2022-08-19T06:11:52;94572.13;;;19.39;46.47
19783;BME280;10051;40.294;-3.754;2022-08-19T06:14:16;94556.19;;;19.09;46.72
19783;BME280;10051;40.294;-3.754;2022-08-19T06:16:43;94603.41;;;19.29;46.77
19783;BME280;10051;40.294;-3.754;2022-08-19T06:19:13;94605.03;;;19.22;47.19
19783;BME280;10051;40.294;-3.754;2022-08-19T06:21:42;94588.66;;;19.02;47.71
19783;BME280;10051;40.294;-3.754;2022-08-19T06:24:10;94603.88;;;19.01;47.51
19783;BME280;10051;40.294;-3.754;2022-08-19T06:26:39;94620.16;;;19.00;48.00
19783;BME280;10051;40.294;-3.754;2022-08-19T06:29:07;94541.13;;;18.74;47.57
19783;BME280;10051;40.294;-3.754;2022-08-19T06:31:34;94623.19;;;19.50;46.88
19783;BME280;10051;40.294;-3.754;2022-08-19T06:34:04;94623.22;;;19.71;46.35
19783;BME280;10051;40.294;-3.754;2022-08-19T06:36:35;94628.88;;;19.69;46.48
19783;BME280;10051;40.294;-3.754;2022-08-19T06:39:45;94637.19;;;19.68;46.50
19783;BME280;10051;40.294;-3.754;2022-08-19T06:41:54;94632.19;;;19.45;47.20
19783;BME280;10051;40.294;-3.754;2022-08-19T06:44:23;94612.50;;;19.58;46.59
19783;BME280;10051;40.294;-3.754;2022-08-19T06:46:49;94637.44;;;20.05;45.94
19783;BME280;10051;40.294;-3.754;2022-08-19T06:49:16;94590.69;;;19.99;45.47
19783;BME280;10051;40.294;-3.754;2022-08-19T06:51:45;94575.13;;;20.01;44.30
19783;BME280;10051;40.294;-3.754;2022-08-19T06:54:13;94649.22;;;20.38;44.59
19783;BME280;10051;40.294;-3.754;2022-08-19T06:56:39;94650.06;;;20.63;44.34
19783;BME280;10051;40.294;-3.754;2022-08-19T06:59:10;94565.44;;;19.96;43.96
19783;BME280;10051;40.294;-3.754;2022-08-19T07:01:42;94652.63;;;20.93;43.35
19783;BME280;10051;40.294;-3.754;2022-08-19T07:04:11;94631.75;;;20.86;43.37
19783;BME280;10051;40.294;-3.754;2022-08-19T07:06:37;94615.91;;;20.69;43.65
19783;BME280;10051;40.294;-3.754;2022-08-19T07:09:04;94657.53;;;21.28;43.38
19783;BME280;10051;40.294;-3.754;2022-08-19T07:11:30;94602.72;;;20.97;42.83
19783;BME280;10051;40.294;-3.754;2022-08-19T07:13:56;94660.28;;;21.32;42.32
19783;BME280;10051;40.294;-3.754;2022-08-19T07:16:21;94504.00;;;20.30;42.16
19783;BME280;10051;40.294;-3.754;2022-08-19T07:18:49;94553.06;;;20.84;41.67
19783;BME280;10051;40.294;-3.754;2022-08-19T07:21:32;94529.41;;;20.61;41.86
19783;BME280;10051;40.294;-3.754;2022-08-19T07:23:59;94612.25;;;21.48;40.99
19783;BME280;10051;40.294;-3.754;2022-08-19T07:26:28;94678.16;;;22.06;40.95
19783;BME280;10051;40.294;-3.754;2022-08-19T07:28:55;94676.94;;;22.44;40.33
19783;BME280;10051;40.294;-3.754;2022-08-19T07:31:23;94653.56;;;22.28;40.48
19783;BME280;10051;40.294;-3.754;2022-08-19T07:33:51;94602.31;;;22.02;40.15
19783;BME280;10051;40.294;-3.754;2022-08-19T07:36:20;94651.50;;;22.82;39.29
19783;BME280;10051;40.294;-3.754;2022-08-19T07:38:48;94616.91;;;22.33;39.30
19783;BME280;10051;40.294;-3.754;2022-08-19T07:41:17;94682.47;;;23.12;38.49
19783;BME280;10051;40.294;-3.754;2022-08-19T07:43:43;94627.03;;;22.68;38.63
19783;BME280;10051;40.294;-3.754;2022-08-19T07:46:10;94550.91;;;22.24;37.85
19783;BME280;10051;40.294;-3.754;2022-08-19T07:48:35;94647.88;;;23.23;37.58
19783;BME280;10051;40.294;-3.754;2022-08-19T07:51:03;94670.19;;;23.43;37.52
19783;BME280;10051;40.294;-3.754;2022-08-19T07:53:31;94693.72;;;23.66;38.03
19783;BME280;10051;40.294;-3.754;2022-08-19T07:55:58;94687.09;;;23.79;37.10
19783;BME280;10051;40.294;-3.754;2022-08-19T07:58:27;94600.53;;;23.46;36.81
19783;BME280;10051;40.294;-3.754;2022-08-19T08:00:53;94648.81;;;23.46;37.35
19783;BME280;10051;40.294;-3.754;2022-08-19T08:03:20;94686.53;;;24.05;36.52
19783;BME280;10051;40.294;-3.754;2022-08-19T08:06:07;94689.59;;;23.88;37.14
19783;BME280;10051;40.294;-3.754;2022-08-19T08:08:50;94643.13;;;23.32;37.36
19783;BME280;10051;40.294;-3.754;2022-08-19T08:11:34;94673.16;;;23.73;36.99
19783;BME280;10051;40.294;-3.754;2022-08-19T13:19:24;94505.59;;;31.62;18.43
19783;BME280;10051;40.294;-3.754;2022-08-19T13:21:50;94450.50;;;31.27;18.31
19783;BME280;10051;40.294;-3.754;2022-08-19T13:24:17;94489.50;;;31.44;18.41
19783;BME280;10051;40.294;-3.754;2022-08-19T13:26:43;94477.31;;;31.25;18.19
19783;BME280;10051;40.294;-3.754;2022-08-19T13:29:09;94364.16;;;30.38;18.65
19783;BME280;10051;40.294;-3.754;2022-08-19T13:31:52;94500.13;;;31.31;19.01
19783;BME280;10051;40.294;-3.754;2022-08-19T13:34:36;94461.75;;;31.29;19.04
19783;BME280;10051;40.294;-3.754;2022-08-19T13:37:03;94485.31;;;31.70;18.67
19783;BME280;10051;40.294;-3.754;2022-08-19T13:39:33;94433.41;;;31.61;18.08
19783;BME280;10051;40.294;-3.754;2022-08-19T13:42:00;94470.59;;;31.99;18.56
19783;BME280;10051;40.294;-3.754;2022-08-19T13:44:26;94324.50;;;30.90;18.33
19783;BME280;10051;40.294;-3.754;2022-08-19T13:46:55;94374.28;;;31.10;18.24
19783;BME280;10051;40.294;-3.754;2022-08-19T13:49:24;94429.00;;;31.74;18.22
19783;BME280;10051;40.294;-3.754;2022-08-19T13:51:50;94385.66;;;31.60;18.20
19783;BME280;10051;40.294;-3.754;2022-08-19T13:54:15;94423.63;;;31.98;17.93
19783;BME280;10051;40.294;-3.754;2022-08-19T13:56:43;94427.06;;;32.26;17.33
19783;BME280;10051;40.294;-3.754;2022-08-19T13:59:09;94462.00;;;32.31;16.87
19783;BME280;10051;40.294;-3.754;2022-08-19T14:01:35;94438.06;;;32.19;17.46
19783;BME280;10051;40.294;-3.754;2022-08-19T14:04:02;94410.97;;;31.84;17.96
19783;BME280;10051;40.294;-3.754;2022-08-19T14:06:28;94394.09;;;31.69;17.01
19783;BME280;10051;40.294;-3.754;2022-08-19T14:08:53;94343.44;;;31.28;17.42
19783;BME280;10051;40.294;-3.754;2022-08-19T14:11:19;94314.69;;;31.30;17.27
19783;BME280;10051;40.294;-3.754;2022-08-19T14:13:44;94370.75;;;31.76;16.85
19783;BME280;10051;40.294;-3.754;2022-08-19T14:16:12;94380.94;;;31.95;16.62
19783;BME280;10051;40.294;-3.754;2022-08-19T14:18:38;94329.69;;;31.66;16.86
19783;BME280;10051;40.294;-3.754;2022-08-19T14:21:05;94298.88;;;31.53;16.81
19783;BME280;10051;40.294;-3.754;2022-08-19T14:23:32;94366.38;;;32.06;17.03
19783;BME280;10051;40.294;-3.754;2022-08-19T14:26:10;94396.00;;;32.24;17.04
19783;BME280;10051;40.294;-3.754;2022-08-19T14:28:37;94419.53;;;32.38;16.51
19783;BME280;10051;40.294;-3.754;2022-08-19T14:31:02;94399.38;;;32.08;17.59
19783;BME280;10051;40.294;-3.754;2022-08-19T14:33:28;94420.56;;;32.20;17.67
19783;BME280;10051;40.294;-3.754;2022-08-19T14:35:53;94382.06;;;31.98;16.94
19783;BME280;10051;40.294;-3.754;2022-08-19T14:38:19;94350.00;;;31.85;16.97
19783;BME280;10051;40.294;-3.754;2022-08-19T14:40:45;94296.97;;;31.50;16.67
19783;BME280;10051;40.294;-3.754;2022-08-19T14:43:11;94400.25;;;32.28;16.25
19783;BME280;10051;40.294;-3.754;2022-08-19T14:45:38;94309.81;;;31.45;16.85
19783;BME280;10051;40.294;-3.754;2022-08-19T14:48:06;94410.03;;;31.98;17.17
19783;BME280;10051;40.294;-3.754;2022-08-19T14:50:32;94362.94;;;31.78;17.33
19783;BME280;10051;40.294;-3.754;2022-08-19T14:53:08;94405.16;;;32.10;16.93
19783;BME280;10051;40.294;-3.754;2022-08-19T14:55:34;94397.38;;;32.12;16.99
19783;BME280;10051;40.294;-3.754;2022-08-19T14:58:00;94408.97;;;32.16;17.27
19783;BME280;10051;40.294;-3.754;2022-08-19T15:00:27;94291.00;;;31.31;17.26
19783;BME280;10051;40.294;-3.754;2022-08-19T15:02:52;94376.53;;;31.78;17.20
19783;BME280;10051;40.294;-3.754;2022-08-19T15:05:20;94389.19;;;31.88;17.44
19783;BME280;10051;40.294;-3.754;2022-08-19T15:07:46;94388.72;;;31.66;17.23
19783;BME280;10051;40.294;-3.754;2022-08-19T15:10:13;94325.22;;;31.25;17.55
19783;BME280;10051;40.294;-3.754;2022-08-19T15:12:39;94385.88;;;31.77;17.57
19783;BME280;10051;40.294;-3.754;2022-08-19T15:15:07;94375.34;;;31.79;16.77
19783;BME280;10051;40.294;-3.754;2022-08-19T15:17:32;94297.25;;;31.28;17.08
19783;BME280;10051;40.294;-3.754;2022-08-19T15:19:58;94335.22;;;31.59;17.17
19783;BME280;10051;40.294;-3.754;2022-08-19T15:22:23;94326.41;;;31.51;16.74
19783;BME280;10051;40.294;-3.754;2022-08-19T15:24:49;94272.91;;;31.21;16.82
19783;BME280;10051;40.294;-3.754;2022-08-19T15:27:18;94378.16;;;31.99;16.43
19783;BME280;10051;40.294;-3.754;2022-08-19T15:29:43;94349.44;;;31.70;16.24
19783;BME280;10051;40.294;-3.754;2022-08-19T15:32:10;94372.91;;;31.88;16.44
19783;BME280;10051;40.294;-3.754;2022-08-19T15:34:35;94316.69;;;31.54;16.47
19783;BME280;10051;40.294;-3.754;2022-08-19T15:37:01;94346.44;;;31.92;16.86
19783;BME280;10051;40.294;-3.754;2022-08-19T15:39:28;94371.59;;;31.96;16.57
19783;BME280;10051;40.294;-3.754;2022-08-19T15:41:54;94274.31;;;31.33;16.83
19783;BME280;10051;40.294;-3.754;2022-08-19T15:44:19;94271.47;;;31.12;17.06
19783;BME280;10051;40.294;-3.754;2022-08-19T15:46:47;94364.38;;;31.86;16.71
19783;BME280;10051;40.294;-3.754;2022-08-19T15:49:16;94254.47;;;31.08;17.17
19783;BME280;10051;40.294;-3.754;2022-08-19T15:51:44;94348.91;;;31.83;17.34
19783;BME280;10051;40.294;-3.754;2022-08-19T15:54:13;94209.84;;;30.82;17.76
19783;BME280;10051;40.294;-3.754;2022-08-19T15:56:39;94286.13;;;31.19;16.93
19783;BME280;10051;40.294;-3.754;2022-08-19T15:59:23;94309.09;;;31.41;17.53
19783;BME280;10051;40.294;-3.754;2022-08-19T16:02:07;94363.03;;;31.70;17.13
19783;BME280;10051;40.294;-3.754;2022-08-19T16:04:52;94294.59;;;31.24;17.98
19783;BME280;10051;40.294;-3.754;2022-08-19T16:07:36;94310.81;;;31.32;17.08
19783;BME280;10051;40.294;-3.754;2022-08-19T16:10:03;94285.78;;;31.17;17.07
19783;BME280;10051;40.294;-3.754;2022-08-19T16:12:29;94351.88;;;31.61;17.25
19783;BME280;10051;40.294;-3.754;2022-08-19T16:14:56;94321.91;;;31.41;17.61
19783;BME280;10051;40.294;-3.754;2022-08-19T16:17:22;94303.88;;;31.27;18.10
19783;BME280;10051;40.294;-3.754;2022-08-19T16:19:47;94293.09;;;31.20;18.19
19783;BME280;10051;40.294;-3.754;2022-08-19T16:22:13;94220.19;;;30.60;17.54
19783;BME280;10051;40.294;-3.754;2022-08-19T16:24:39;94355.56;;;31.51;17.80
19783;BME280;10051;40.294;-3.754;2022-08-19T16:27:04;94222.97;;;30.52;18.08
19783;BME280;10051;40.294;-3.754;2022-08-19T16:29:30;94305.78;;;30.99;18.12
19783;BME280;10051;40.294;-3.754;2022-08-19T16:31:55;94346.59;;;31.23;18.25
19783;BME280;10051;40.294;-3.754;2022-08-19T16:34:22;94342.06;;;31.12;18.54
19783;BME280;10051;40.294;-3.754;2022-08-19T16:36:48;94284.06;;;30.68;18.54
19783;BME280;10051;40.294;-3.754;2022-08-19T16:39:15;94343.69;;;31.06;17.78
19783;BME280;10051;40.294;-3.754;2022-08-19T16:41:43;94254.38;;;30.50;18.21
19783;BME280;10051;40.294;-3.754;2022-08-19T16:44:12;94339.81;;;31.07;18.93
19783;BME280;10051;40.294;-3.754;2022-08-19T16:46:39;94286.09;;;30.56;19.12
19783;BME280;10051;40.294;-3.754;2022-08-19T16:49:07;94303.44;;;30.66;18.43
19783;BME280;10051;40.294;-3.754;2022-08-19T16:51:33;94340.03;;;30.85;17.84
19783;BME280;10051;40.294;-3.754;2022-08-19T16:53:59;94193.50;;;29.81;17.96
19783;BME280;10051;40.294;-3.754;2022-08-19T16:56:25;94263.81;;;30.38;17.77
19783;BME280;10051;40.294;-3.754;2022-08-19T16:58:51;94203.09;;;29.90;18.09
19783;BME280;10051;40.294;-3.754;2022-08-19T17:01:18;94239.34;;;30.07;18.07
19783;BME280;10051;40.294;-3.754;2022-08-19T17:03:44;94046.25;;;28.73;18.56
19783;BME280;10051;40.294;-3.754;2022-08-19T17:06:15;94216.28;;;29.88;18.14
19783;BME280;10051;40.294;-3.754;2022-08-19T17:08:42;94207.34;;;29.91;18.39
19783;BME280;10051;40.294;-3.754;2022-08-19T17:11:08;94269.34;;;30.27;18.25
19783;BME280;10051;40.294;-3.754;2022-08-19T17:13:34;94243.91;;;30.14;18.47
19783;BME280;10051;40.294;-3.754;2022-08-19T17:16:00;94212.78;;;29.87;18.78
19783;BME280;10051;40.294;-3.754;2022-08-19T17:18:26;94203.97;;;29.79;18.22
19783;BME280;10051;40.294;-3.754;2022-08-19T17:20:52;94313.97;;;30.61;18.34
19783;BME280;10051;40.294;-3.754;2022-08-19T17:23:19;94308.06;;;30.69;18.35
19783;BME280;10051;40.294;-3.754;2022-08-19T17:25:46;94307.78;;;30.56;18.29
19783;BME280;10051;40.294;-3.754;2022-08-19T17:28:19;94065.50;;;28.90;17.94
19783;BME280;10051;40.294;-3.754;2022-08-19T17:30:45;94271.63;;;30.32;18.69
19783;BME280;10051;40.294;-3.754;2022-08-19T17:33:11;94142.69;;;29.51;18.61
19783;BME280;10051;40.294;-3.754;2022-08-19T17:35:37;94221.63;;;29.95;18.83
19783;BME280;10051;40.294;-3.754;2022-08-19T17:38:09;94162.09;;;29.46;18.39
19783;BME280;10051;40.294;-3.754;2022-08-19T17:40:35;94212.41;;;29.85;18.89
19783;BME280;10051;40.294;-3.754;2022-08-19T17:43:01;94306.38;;;30.45;18.97
19783;BME280;10051;40.294;-3.754;2022-08-19T17:45:27;94257.16;;;30.08;19.38
19783;BME280;10051;40.294;-3.754;2022-08-19T17:47:53;94300.22;;;30.40;18.78
19783;BME280;10051;40.294;-3.754;2022-08-19T17:50:20;94197.06;;;29.71;18.28
19783;BME280;10051;40.294;-3.754;2022-08-19T17:52:46;94239.06;;;29.94;18.59
19783;BME280;10051;40.294;-3.754;2022-08-19T17:55:13;94281.13;;;30.13;18.39
19783;BME280;10051;40.294;-3.754;2022-08-19T17:57:39;94273.09;;;30.02;18.10
19783;BME280;10051;40.294;-3.754;2022-08-19T18:00:07;94292.34;;;30.15;18.51
19783;BME280;10051;40.294;-3.754;2022-08-19T18:05:14;94318.16;;;30.27;18.76
19783;BME280;10051;40.294;-3.754;2022-08-19T18:07:40;94320.03;;;30.34;18.75